sensor_id;sensor_type;location;lat;lon;timestamp;P1;durP1;ratioP1;P2;durP2;ratioP2
25922;SDS011;13725;51.170;4.442;2022-09-01T00:02:19;3.15;;;1.10;;
25922;SDS011;13725;51.170;4.442;2022-09-01T00:04:45;2.58;;;1.10;;
25922;SDS011;13725;51.170;4.442;2022-09-01T00:07:12;3.70;;;1.20;;
25922;SDS011;13725;51.170;4.442;2022-09-01T00:09:38;3.35;;;1.10;;
25922;SDS011;13725;51.170;4.442;2022-09-01T00:12:06;3.83;;;1.20;;
25922;SDS011;13725;51.170;4.442;2022-09-01T00:14:33;3.60;;;1.08;;
25922;SDS011;13725;51.170;4.442;2022-09-01T00:17:04;3.63;;;1.33;;
25922;SDS011;13725;51.170;4.442;2022-09-01T00:19:32;3.70;;;1.20;;
25922;SDS011;13725;51.170;4.442;2022-09-01T00:22:00;5.15;;;1.23;;
25922;SDS011;13725;51.170;4.442;2022-09-01T00:24:26;3.45;;;1.23;;
25922;SDS011;13725;51.170;4.442;2022-09-01T00:26:52;2.85;;;1.42;;
25922;SDS011;13725;51.170;4.442;2022-09-01T00:29:19;1.20;;;1.00;;
25922;SDS011;13725;51.170;4.442;2022-09-01T00:31:45;1.65;;;1.20;;
25922;SDS011;13725;51.170;4.442;2022-09-01T00:34:12;2.20;;;1.10;;
25922;SDS011;13725;51.170;4.442;2022-09-01T00:36:38;3.17;;;1.40;;
25922;SDS011;13725;51.170;4.442;2022-09-01T00:39:04;2.10;;;1.25;;
25922;SDS011;13725;51.170;4.442;2022-09-01T00:41:32;2.95;;;1.20;;
25922;SDS011;13725;51.170;4.442;2022-09-01T00:44:01;4.18;;;1.40;;
25922;SDS011;13725;51.170;4.442;2022-09-01T00:46:37;2.17;;;1.40;;
25922;SDS011;13725;51.170;4.442;2022-09-01T00:49:07;1.75;;;0.90;;
25922;SDS011;13725;51.170;4.442;2022-09-01T00:51:37;4.88;;;1.27;;
25922;SDS011;13725;51.170;4.442;2022-09-01T00:54:05;5.60;;;1.38;;
25922;SDS011;13725;51.170;4.442;2022-09-01T00:56:36;2.80;;;1.17;;
25922;SDS011;13725;51.170;4.442;2022-09-01T00:59:04;2.13;;;1.40;;
25922;SDS011;13725;51.170;4.442;2022-09-01T01:01:32;5.50;;;1.98;;
25922;SDS011;13725;51.170;4.442;2022-09-01T01:04:04;4.22;;;1.30;;
25922;SDS011;13725;51.170;4.442;2022-09-01T01:06:46;2.20;;;1.30;;
25922;SDS011;13725;51.170;4.442;2022-09-01T01:09:18;2.03;;;1.38;;
25922;SDS011;13725;51.170;4.442;2022-09-01T01:11:46;3.00;;;1.27;;
25922;SDS011;13725;51.170;4.442;2022-09-01T01:14:13;7.63;;;1.40;;
25922;SDS011;13725;51.170;4.442;2022-09-01T01:16:46;6.07;;;1.45;;
25922;SDS011;13725;51.170;4.442;2022-09-01T01:22:17;6.72;;;1.77;;
25922;SDS011;13725;51.170;4.442;2022-09-01T01:25:07;5.22;;;1.55;;
25922;SDS011;13725;51.170;4.442;2022-09-01T01:27:37;5.20;;;1.30;;
25922;SDS011;13725;51.170;4.442;2022-09-01T01:30:06;2.20;;;1.52;;
25922;SDS011;13725;51.170;4.442;2022-09-01T01:32:36;3.22;;;1.45;;
25922;SDS011;13725;51.170;4.442;2022-09-01T01:35:08;4.25;;;1.70;;
25922;SDS011;13725;51.170;4.442;2022-09-01T01:37:40;2.85;;;1.73;;
25922;SDS011;13725;51.170;4.442;2022-09-01T01:40:12;3.53;;;2.50;;
25922;SDS011;13725;51.170;4.442;2022-09-01T01:42:43;4.32;;;1.50;;
25922;SDS011;13725;51.170;4.442;2022-09-01T01:45:13;2.72;;;1.30;;
25922;SDS011;13725;51.170;4.442;2022-09-01T01:47:47;5.57;;;1.45;;
25922;SDS011;13725;51.170;4.442;2022-09-01T01:50:23;1.38;;;1.10;;
25922;SDS011;13725;51.170;4.442;2022-09-01T01:52:51;3.47;;;1.35;;
25922;SDS011;13725;51.170;4.442;2022-09-01T01:55:19;4.63;;;1.73;;
25922;SDS011;13725;51.170;4.442;2022-09-01T01:57:52;2.83;;;1.60;;
25922;SDS011;13725;51.170;4.442;2022-09-01T02:00:21;1.88;;;1.23;;
25922;SDS011;13725;51.170;4.442;2022-09-01T02:02:49;2.45;;;1.50;;
25922;SDS011;13725;51.170;4.442;2022-09-01T02:05:19;4.63;;;1.50;;
25922;SDS011;13725;51.170;4.442;2022-09-01T02:07:53;4.88;;;1.67;;
25922;SDS011;13725;51.170;4.442;2022-09-01T02:10:24;3.78;;;1.48;;
25922;SDS011;13725;51.170;4.442;2022-09-01T02:12:51;6.45;;;1.50;;
25922;SDS011;13725;51.170;4.442;2022-09-01T02:15:18;3.38;;;1.48;;
25922;SDS011;13725;51.170;4.442;2022-09-01T02:17:45;1.85;;;1.42;;
25922;SDS011;13725;51.170;4.442;2022-09-01T02:20:12;3.90;;;1.33;;
25922;SDS011;13725;51.170;4.442;2022-09-01T02:22:40;2.88;;;1.45;;
25922;SDS011;13725;51.170;4.442;2022-09-01T02:25:08;2.55;;;1.77;;
25922;SDS011;13725;51.170;4.442;2022-09-01T02:27:35;3.40;;;1.40;;
25922;SDS011;13725;51.170;4.442;2022-09-01T02:30:03;3.70;;;1.60;;
25922;SDS011;13725;51.170;4.442;2022-09-01T02:32:36;4.25;;;1.63;;
25922;SDS011;13725;51.170;4.442;2022-09-01T02:35:03;2.65;;;1.25;;
25922;SDS011;13725;51.170;4.442;2022-09-01T02:37:35;2.53;;;1.65;;
25922;SDS011;13725;51.170;4.442;2022-09-01T02:40:04;3.88;;;2.42;;
25922;SDS011;13725;51.170;4.442;2022-09-01T02:42:34;2.17;;;1.40;;
25922;SDS011;13725;51.170;4.442;2022-09-01T02:45:05;2.72;;;1.27;;
25922;SDS011;13725;51.170;4.442;2022-09-01T02:47:36;4.25;;;1.27;;
25922;SDS011;13725;51.170;4.442;2022-09-01T02:50:06;2.22;;;1.63;;
25922;SDS011;13725;51.170;4.442;2022-09-01T02:52:39;5.10;;;1.80;;
25922;SDS011;13725;51.170;4.442;2022-09-01T02:55:07;4.10;;;1.23;;
25922;SDS011;13725;51.170;4.442;2022-09-01T02:57:34;3.85;;;1.70;;
25922;SDS011;13725;51.170;4.442;2022-09-01T03:00:00;4.40;;;1.38;;
25922;SDS011;13725;51.170;4.442;2022-09-01T03:05:00;8.52;;;1.27;;
25922;SDS011;13725;51.170;4.442;2022-09-01T03:07:26;6.25;;;1.40;;
25922;SDS011;13725;51.170;4.442;2022-09-01T03:09:53;4.15;;;1.45;;
25922;SDS011;13725;51.170;4.442;2022-09-01T03:12:19;3.75;;;1.50;;
25922;SDS011;13725;51.170;4.442;2022-09-01T03:14:45;4.28;;;1.77;;
25922;SDS011;13725;51.170;4.442;2022-09-01T03:17:11;4.22;;;1.75;;
25922;SDS011;13725;51.170;4.442;2022-09-01T03:19:38;1.98;;;1.38;;
25922;SDS011;13725;51.170;4.442;2022-09-01T03:22:10;4.45;;;1.60;;
25922;SDS011;13725;51.170;4.442;2022-09-01T03:24:36;5.70;;;1.52;;
25922;SDS011;13725;51.170;4.442;2022-09-01T03:27:09;2.90;;;2.00;;
25922;SDS011;13725;51.170;4.442;2022-09-01T03:29:38;3.40;;;1.77;;
25922;SDS011;13725;51.170;4.442;2022-09-01T03:32:04;2.28;;;1.50;;
25922;SDS011;13725;51.170;4.442;2022-09-01T03:34:30;2.75;;;1.50;;
25922;SDS011;13725;51.170;4.442;2022-09-01T03:36:58;2.45;;;1.60;;
25922;SDS011;13725;51.170;4.442;2022-09-01T03:39:27;3.53;;;1.35;;
25922;SDS011;13725;51.170;4.442;2022-09-01T03:41:53;2.20;;;1.40;;
25922;SDS011;13725;51.170;4.442;2022-09-01T03:44:22;2.42;;;1.42;;
25922;SDS011;13725;51.170;4.442;2022-09-01T03:46:48;2.90;;;1.52;;
25922;SDS011;13725;51.170;4.442;2022-09-01T03:49:14;9.60;;;3.05;;
25922;SDS011;13725;51.170;4.442;2022-09-01T03:51:49;2.42;;;1.50;;
25922;SDS011;13725;51.170;4.442;2022-09-01T03:54:18;2.45;;;1.20;;
25922;SDS011;13725;51.170;4.442;2022-09-01T03:56:47;5.95;;;1.70;;
25922;SDS011;13725;51.170;4.442;2022-09-01T03:59:16;2.20;;;1.58;;
25922;SDS011;13725;51.170;4.442;2022-09-01T04:01:42;2.78;;;1.23;;
25922;SDS011;13725;51.170;4.442;2022-09-01T04:04:10;4.00;;;1.75;;
25922;SDS011;13725;51.170;4.442;2022-09-01T04:06:40;6.32;;;1.70;;
25922;SDS011;13725;51.170;4.442;2022-09-01T04:09:07;4.75;;;2.05;;
25922;SDS011;13725;51.170;4.442;2022-09-01T04:11:35;4.78;;;1.58;;
25922;SDS011;13725;51.170;4.442;2022-09-01T04:14:06;3.85;;;1.75;;
25922;SDS011;13725;51.170;4.442;2022-09-01T04:16:36;5.13;;;2.30;;
25922;SDS011;13725;51.170;4.442;2022-09-01T04:19:21;4.55;;;2.05;;
25922;SDS011;13725;51.170;4.442;2022-09-01T04:21:59;4.03;;;1.80;;
25922;SDS011;13725;51.170;4.442;2022-09-01T04:24:30;3.97;;;1.90;;
25922;SDS011;13725;51.170;4.442;2022-09-01T04:26:59;2.75;;;1.73;;
25922;SDS011;13725;51.170;4.442;2022-09-01T04:29:26;8.48;;;2.42;;
25922;SDS011;13725;51.170;4.442;2022-09-01T04:34:21;3.35;;;2.38;;
25922;SDS011;13725;51.170;4.442;2022-09-01T04:36:48;6.78;;;2.28;;
25922;SDS011;13725;51.170;4.442;2022-09-01T04:39:18;4.57;;;2.20;;
25922;SDS011;13725;51.170;4.442;2022-09-01T04:41:45;5.78;;;2.20;;
25922;SDS011;13725;51.170;4.442;2022-09-01T04:44:12;4.20;;;2.30;;
25922;SDS011;13725;51.170;4.442;2022-09-01T04:46:40;4.85;;;2.28;;
25922;SDS011;13725;51.170;4.442;2022-09-01T04:49:10;5.88;;;3.50;;
25922;SDS011;13725;51.170;4.442;2022-09-01T04:51:41;4.13;;;2.65;;
25922;SDS011;13725;51.170;4.442;2022-09-01T04:54:09;5.35;;;2.72;;
25922;SDS011;13725;51.170;4.442;2022-09-01T04:56:41;8.95;;;2.85;;
25922;SDS011;13725;51.170;4.442;2022-09-01T04:59:12;6.07;;;2.55;;
25922;SDS011;13725;51.170;4.442;2022-09-01T05:01:39;10.45;;;2.90;;
25922;SDS011;13725;51.170;4.442;2022-09-01T05:04:16;4.38;;;2.60;;
25922;SDS011;13725;51.170;4.442;2022-09-01T05:06:46;4.20;;;2.85;;
25922;SDS011;13725;51.170;4.442;2022-09-01T05:09:16;11.80;;;3.25;;
25922;SDS011;13725;51.170;4.442;2022-09-01T05:11:58;5.10;;;2.70;;
25922;SDS011;13725;51.170;4.442;2022-09-01T05:14:39;8.75;;;3.50;;
25922;SDS011;13725;51.170;4.442;2022-09-01T05:17:08;10.32;;;4.15;;
25922;SDS011;13725;51.170;4.442;2022-09-01T05:19:36;11.32;;;3.28;;
25922;SDS011;13725;51.170;4.442;2022-09-01T05:22:03;6.57;;;3.53;;
25922;SDS011;13725;51.170;4.442;2022-09-01T05:24:36;9.07;;;3.40;;
25922;SDS011;13725;51.170;4.442;2022-09-01T05:27:03;4.95;;;3.28;;
25922;SDS011;13725;51.170;4.442;2022-09-01T05:29:33;7.90;;;3.42;;
25922;SDS011;13725;51.170;4.442;2022-09-01T05:32:04;9.50;;;4.38;;
25922;SDS011;13725;51.170;4.442;2022-09-01T05:34:36;7.25;;;4.07;;
25922;SDS011;13725;51.170;4.442;2022-09-01T05:37:04;4.93;;;3.83;;
25922;SDS011;13725;51.170;4.442;2022-09-01T05:39:32;7.57;;;4.47;;
25922;SDS011;13725;51.170;4.442;2022-09-01T05:42:00;8.07;;;3.95;;
25922;SDS011;13725;51.170;4.442;2022-09-01T05:44:26;7.88;;;4.13;;
25922;SDS011;13725;51.170;4.442;2022-09-01T05:46:54;11.05;;;3.75;;
25922;SDS011;13725;51.170;4.442;2022-09-01T05:49:25;9.30;;;3.63;;
25922;SDS011;13725;51.170;4.442;2022-09-01T05:51:54;10.05;;;4.25;;
25922;SDS011;13725;51.170;4.442;2022-09-01T05:54:24;11.98;;;4.30;;
25922;SDS011;13725;51.170;4.442;2022-09-01T05:56:54;8.80;;;4.43;;
25922;SDS011;13725;51.170;4.442;2022-09-01T05:59:25;10.88;;;4.32;;
25922;SDS011;13725;51.170;4.442;2022-09-01T06:01:56;11.25;;;4.72;;
25922;SDS011;13725;51.170;4.442;2022-09-01T06:04:24;13.95;;;4.43;;
25922;SDS011;13725;51.170;4.442;2022-09-01T06:06:52;13.00;;;4.63;;
25922;SDS011;13725;51.170;4.442;2022-09-01T06:09:19;12.77;;;5.07;;
25922;SDS011;13725;51.170;4.442;2022-09-01T06:11:48;9.30;;;4.78;;
25922;SDS011;13725;51.170;4.442;2022-09-01T06:14:15;14.07;;;5.68;;
25922;SDS011;13725;51.170;4.442;2022-09-01T06:16:44;8.32;;;4.82;;
25922;SDS011;13725;51.170;4.442;2022-09-01T06:19:12;12.73;;;5.32;;
25922;SDS011;13725;51.170;4.442;2022-09-01T06:21:43;9.13;;;5.15;;
25922;SDS011;13725;51.170;4.442;2022-09-01T06:24:13;12.85;;;5.20;;
25922;SDS011;13725;51.170;4.442;2022-09-01T06:26:39;18.50;;;5.55;;
25922;SDS011;13725;51.170;4.442;2022-09-01T06:29:07;14.40;;;6.05;;
25922;SDS011;13725;51.170;4.442;2022-09-01T06:31:41;13.48;;;6.60;;
25922;SDS011;13725;51.170;4.442;2022-09-01T06:34:15;12.15;;;5.60;;
25922;SDS011;13725;51.170;4.442;2022-09-01T06:36:44;10.93;;;4.97;;
25922;SDS011;13725;51.170;4.442;2022-09-01T06:39:14;12.23;;;5.65;;
25922;SDS011;13725;51.170;4.442;2022-09-01T06:41:47;11.30;;;5.55;;
25922;SDS011;13725;51.170;4.442;2022-09-01T06:44:17;12.07;;;5.72;;
25922;SDS011;13725;51.170;4.442;2022-09-01T06:46:51;18.48;;;6.10;;
25922;SDS011;13725;51.170;4.442;2022-09-01T06:49:18;12.85;;;6.28;;
25922;SDS011;13725;51.170;4.442;2022-09-01T06:51:54;14.70;;;6.25;;
25922;SDS011;13725;51.170;4.442;2022-09-01T06:54:22;12.07;;;6.28;;
25922;SDS011;13725;51.170;4.442;2022-09-01T06:56:47;12.30;;;6.32;;
25922;SDS011;13725;51.170;4.442;2022-09-01T06:59:15;17.73;;;6.68;;
25922;SDS011;13725;51.170;4.442;2022-09-01T07:01:44;15.05;;;7.10;;
25922;SDS011;13725;51.170;4.442;2022-09-01T07:04:14;16.30;;;7.28;;
25922;SDS011;13725;51.170;4.442;2022-09-01T07:06:52;13.82;;;7.07;;
25922;SDS011;13725;51.170;4.442;2022-09-01T07:09:44;15.68;;;7.10;;
25922;SDS011;13725;51.170;4.442;2022-09-01T07:12:30;14.68;;;6.75;;
25922;SDS011;13725;51.170;4.442;2022-09-01T07:14:56;10.55;;;6.68;;
25922;SDS011;13725;51.170;4.442;2022-09-01T07:17:24;16.58;;;6.78;;
25922;SDS011;13725;51.170;4.442;2022-09-01T07:19:51;16.33;;;7.25;;
25922;SDS011;13725;51.170;4.442;2022-09-01T07:22:18;12.70;;;6.82;;
25922;SDS011;13725;51.170;4.442;2022-09-01T07:24:46;10.93;;;6.72;;
25922;SDS011;13725;51.170;4.442;2022-09-01T07:27:43;11.98;;;6.28;;
25922;SDS011;13725;51.170;4.442;2022-09-01T07:30:13;14.63;;;6.88;;
25922;SDS011;13725;51.170;4.442;2022-09-01T07:32:40;16.95;;;6.85;;
25922;SDS011;13725;51.170;4.442;2022-09-01T07:35:11;18.70;;;7.80;;
25922;SDS011;13725;51.170;4.442;2022-09-01T07:37:38;21.25;;;6.80;;
25922;SDS011;13725;51.170;4.442;2022-09-01T07:40:05;20.98;;;7.53;;
25922;SDS011;13725;51.170;4.442;2022-09-01T07:42:36;12.10;;;6.20;;
25922;SDS011;13725;51.170;4.442;2022-09-01T07:45:23;16.98;;;6.75;;
25922;SDS011;13725;51.170;4.442;2022-09-01T07:48:01;12.90;;;7.53;;
25922;SDS011;13725;51.170;4.442;2022-09-01T07:50:35;16.30;;;7.25;;
25922;SDS011;13725;51.170;4.442;2022-09-01T07:53:06;16.50;;;7.00;;
25922;SDS011;13725;51.170;4.442;2022-09-01T07:55:33;12.18;;;6.38;;
25922;SDS011;13725;51.170;4.442;2022-09-01T07:58:00;13.88;;;7.47;;
25922;SDS011;13725;51.170;4.442;2022-09-01T08:00:26;16.02;;;6.72;;
25922;SDS011;13725;51.170;4.442;2022-09-01T08:02:57;16.58;;;7.28;;
25922;SDS011;13725;51.170;4.442;2022-09-01T08:05:23;15.80;;;6.45;;
25922;SDS011;13725;51.170;4.442;2022-09-01T08:07:51;10.82;;;7.05;;
25922;SDS011;13725;51.170;4.442;2022-09-01T08:10:20;13.90;;;6.53;;
25922;SDS011;13725;51.170;4.442;2022-09-01T08:12:48;17.00;;;7.03;;
25922;SDS011;13725;51.170;4.442;2022-09-01T08:15:14;13.63;;;7.30;;
25922;SDS011;13725;51.170;4.442;2022-09-01T08:17:42;10.55;;;6.63;;
25922;SDS011;13725;51.170;4.442;2022-09-01T08:20:10;11.10;;;6.82;;
25922;SDS011;13725;51.170;4.442;2022-09-01T08:22:57;11.13;;;6.55;;
25922;SDS011;13725;51.170;4.442;2022-09-01T08:25:27;13.23;;;6.65;;
25922;SDS011;13725;51.170;4.442;2022-09-01T08:27:53;16.15;;;6.20;;
25922;SDS011;13725;51.170;4.442;2022-09-01T08:30:19;17.70;;;6.65;;
25922;SDS011;13725;51.170;4.442;2022-09-01T08:32:45;12.55;;;6.53;;
25922;SDS011;13725;51.170;4.442;2022-09-01T08:35:11;10.75;;;6.15;;
25922;SDS011;13725;51.170;4.442;2022-09-01T08:37:40;14.45;;;6.50;;
25922;SDS011;13725;51.170;4.442;2022-09-01T08:40:07;12.85;;;6.45;;
25922;SDS011;13725;51.170;4.442;2022-09-01T08:48:18;14.27;;;6.15;;
25922;SDS011;13725;51.170;4.442;2022-09-01T08:54:13;14.82;;;6.47;;
25922;SDS011;13725;51.170;4.442;2022-09-01T08:56:47;14.43;;;5.78;;
25922;SDS011;13725;51.170;4.442;2022-09-01T08:59:41;11.25;;;5.65;;
25922;SDS011;13725;51.170;4.442;2022-09-01T09:02:38;13.60;;;6.18;;
25922;SDS011;13725;51.170;4.442;2022-09-01T09:10:54;10.77;;;5.25;;
25922;SDS011;13725;51.170;4.442;2022-09-01T09:16:29;12.13;;;5.60;;
25922;SDS011;13725;51.170;4.442;2022-09-01T09:19:21;16.27;;;5.75;;
25922;SDS011;13725;51.170;4.442;2022-09-01T09:21:53;12.88;;;4.85;;
25922;SDS011;13725;51.170;4.442;2022-09-01T09:27:18;9.07;;;4.35;;
25922;SDS011;13725;51.170;4.442;2022-09-01T09:29:52;10.43;;;4.18;;
25922;SDS011;13725;51.170;4.442;2022-09-01T09:32:20;7.93;;;3.38;;
25922;SDS011;13725;51.170;4.442;2022-09-01T09:34:47;6.78;;;3.38;;
25922;SDS011;13725;51.170;4.442;2022-09-01T09:37:16;5.70;;;2.85;;
25922;SDS011;13725;51.170;4.442;2022-09-01T09:39:44;6.22;;;3.05;;
25922;SDS011;13725;51.170;4.442;2022-09-01T09:42:12;2.83;;;2.10;;
25922;SDS011;13725;51.170;4.442;2022-09-01T09:44:43;4.78;;;2.50;;
25922;SDS011;13725;51.170;4.442;2022-09-01T09:47:32;6.90;;;2.08;;
25922;SDS011;13725;51.170;4.442;2022-09-01T09:50:10;4.93;;;2.10;;
25922;SDS011;13725;51.170;4.442;2022-09-01T09:52:42;3.60;;;1.90;;
25922;SDS011;13725;51.170;4.442;2022-09-01T09:55:21;7.43;;;1.77;;
25922;SDS011;13725;51.170;4.442;2022-09-01T09:57:48;7.60;;;2.47;;
25922;SDS011;13725;51.170;4.442;2022-09-01T10:00:19;11.55;;;1.90;;
25922;SDS011;13725;51.170;4.442;2022-09-01T10:02:59;3.13;;;1.30;;
25922;SDS011;13725;51.170;4.442;2022-09-01T10:08:11;4.78;;;1.52;;
25922;SDS011;13725;51.170;4.442;2022-09-01T10:11:02;2.47;;;1.30;;
25922;SDS011;13725;51.170;4.442;2022-09-01T10:13:29;5.63;;;1.73;;
25922;SDS011;13725;51.170;4.442;2022-09-01T10:15:57;3.72;;;1.50;;
25922;SDS011;13725;51.170;4.442;2022-09-01T10:18:29;2.20;;;1.77;;
25922;SDS011;13725;51.170;4.442;2022-09-01T10:21:01;3.95;;;1.30;;
25922;SDS011;13725;51.170;4.442;2022-09-01T10:23:33;3.20;;;1.50;;
25922;SDS011;13725;51.170;4.442;2022-09-01T10:31:21;6.57;;;1.45;;
25922;SDS011;13725;51.170;4.442;2022-09-01T10:33:48;3.95;;;1.35;;
25922;SDS011;13725;51.170;4.442;2022-09-01T10:36:15;13.15;;;2.40;;
25922;SDS011;13725;51.170;4.442;2022-09-01T10:38:41;6.18;;;1.30;;
25922;SDS011;13725;51.170;4.442;2022-09-01T10:41:07;5.13;;;1.58;;
25922;SDS011;13725;51.170;4.442;2022-09-01T10:43:35;3.75;;;1.15;;
25922;SDS011;13725;51.170;4.442;2022-09-01T10:48:47;2.60;;;1.20;;
25922;SDS011;13725;51.170;4.442;2022-09-01T11:01:16;6.05;;;1.13;;
25922;SDS011;13725;51.170;4.442;2022-09-01T11:04:02;2.05;;;0.90;;
25922;SDS011;13725;51.170;4.442;2022-09-01T11:09:06;2.55;;;1.15;;
25922;SDS011;13725;51.170;4.442;2022-09-01T11:14:21;5.18;;;1.25;;
25922;SDS011;13725;51.170;4.442;2022-09-01T11:22:25;6.53;;;0.90;;
25922;SDS011;13725;51.170;4.442;2022-09-01T11:25:30;1.00;;;1.00;;
25922;SDS011;13725;51.170;4.442;2022-09-01T11:30:40;3.42;;;1.10;;
25922;SDS011;13725;51.170;4.442;2022-09-01T11:35:41;5.80;;;1.40;;
25922;SDS011;13725;51.170;4.442;2022-09-01T11:38:09;4.05;;;1.10;;
25922;SDS011;13725;51.170;4.442;2022-09-01T11:40:39;1.90;;;1.33;;
25922;SDS011;13725;51.170;4.442;2022-09-01T11:43:06;1.15;;;1.05;;
25922;SDS011;13725;51.170;4.442;2022-09-01T11:45:51;3.25;;;1.30;;
25922;SDS011;13725;51.170;4.442;2022-09-01T11:48:23;9.15;;;1.63;;
25922;SDS011;13725;51.170;4.442;2022-09-01T11:50:58;3.13;;;1.17;;
25922;SDS011;13725;51.170;4.442;2022-09-01T11:53:26;3.20;;;1.30;;
25922;SDS011;13725;51.170;4.442;2022-09-01T11:55:53;5.43;;;1.33;;
25922;SDS011;13725;51.170;4.442;2022-09-01T12:00:56;2.05;;;1.20;;
25922;SDS011;13725;51.170;4.442;2022-09-01T12:03:36;2.28;;;1.30;;
25922;SDS011;13725;51.170;4.442;2022-09-01T12:06:03;2.85;;;1.42;;
25922;SDS011;13725;51.170;4.442;2022-09-01T12:08:32;2.25;;;1.25;;
25922;SDS011;13725;51.170;4.442;2022-09-01T12:11:17;1.65;;;1.27;;
25922;SDS011;13725;51.170;4.442;2022-09-01T12:16:25;1.60;;;1.20;;
25922;SDS011;13725;51.170;4.442;2022-09-01T12:18:52;5.35;;;1.40;;
25922;SDS011;13725;51.170;4.442;2022-09-01T12:24:11;3.67;;;1.25;;
25922;SDS011;13725;51.170;4.442;2022-09-01T12:26:41;4.93;;;1.60;;
25922;SDS011;13725;51.170;4.442;2022-09-01T12:29:07;6.43;;;1.92;;
25922;SDS011;13725;51.170;4.442;2022-09-01T12:31:35;2.85;;;1.70;;
25922;SDS011;13725;51.170;4.442;2022-09-01T12:34:03;2.65;;;1.58;;
25922;SDS011;13725;51.170;4.442;2022-09-01T12:36:33;1.98;;;1.27;;
25922;SDS011;13725;51.170;4.442;2022-09-01T12:39:22;1.60;;;1.50;;
25922;SDS011;13725;51.170;4.442;2022-09-01T12:42:02;3.00;;;1.42;;
25922;SDS011;13725;51.170;4.442;2022-09-01T12:44:42;8.27;;;1.80;;
25922;SDS011;13725;51.170;4.442;2022-09-01T12:47:43;4.90;;;2.00;;
25922;SDS011;13725;51.170;4.442;2022-09-01T12:52:50;4.03;;;1.48;;
25922;SDS011;13725;51.170;4.442;2022-09-01T12:55:23;4.60;;;1.73;;
25922;SDS011;13725;51.170;4.442;2022-09-01T12:57:51;3.40;;;1.50;;
25922;SDS011;13725;51.170;4.442;2022-09-01T13:00:20;1.30;;;1.20;;
25922;SDS011;13725;51.170;4.442;2022-09-01T13:02:48;2.65;;;1.33;;
25922;SDS011;13725;51.170;4.442;2022-09-01T13:07:47;2.40;;;1.30;;
25922;SDS011;13725;51.170;4.442;2022-09-01T13:10:14;4.85;;;1.50;;
25922;SDS011;13725;51.170;4.442;2022-09-01T13:12:40;3.00;;;1.30;;
25922;SDS011;13725;51.170;4.442;2022-09-01T13:15:07;1.88;;;1.42;;
25922;SDS011;13725;51.170;4.442;2022-09-01T13:17:34;5.45;;;1.55;;
25922;SDS011;13725;51.170;4.442;2022-09-01T13:20:02;3.70;;;1.75;;
25922;SDS011;13725;51.170;4.442;2022-09-01T13:22:29;3.03;;;1.23;;
25922;SDS011;13725;51.170;4.442;2022-09-01T13:24:54;3.15;;;1.40;;
25922;SDS011;13725;51.170;4.442;2022-09-01T13:27:20;2.85;;;1.23;;
25922;SDS011;13725;51.170;4.442;2022-09-01T13:29:47;1.55;;;1.42;;
25922;SDS011;13725;51.170;4.442;2022-09-01T13:32:14;2.00;;;1.30;;
25922;SDS011;13725;51.170;4.442;2022-09-01T13:34:41;2.33;;;1.30;;
25922;SDS011;13725;51.170;4.442;2022-09-01T13:37:07;2.60;;;1.60;;
25922;SDS011;13725;51.170;4.442;2022-09-01T13:39:32;3.63;;;1.52;;
25922;SDS011;13725;51.170;4.442;2022-09-01T13:41:58;8.52;;;1.65;;
25922;SDS011;13725;51.170;4.442;2022-09-01T13:44:24;1.90;;;1.40;;
25922;SDS011;13725;51.170;4.442;2022-09-01T13:46:50;2.22;;;1.40;;
25922;SDS011;13725;51.170;4.442;2022-09-01T13:49:15;2.13;;;1.27;;
25922;SDS011;13725;51.170;4.442;2022-09-01T13:51:41;4.95;;;1.33;;
25922;SDS011;13725;51.170;4.442;2022-09-01T13:54:07;1.55;;;1.13;;
25922;SDS011;13725;51.170;4.442;2022-09-01T13:56:32;3.75;;;1.48;;
25922;SDS011;13725;51.170;4.442;2022-09-01T13:58:59;4.63;;;1.60;;
25922;SDS011;13725;51.170;4.442;2022-09-01T14:01:25;1.85;;;1.15;;
25922;SDS011;13725;51.170;4.442;2022-09-01T14:03:50;2.85;;;1.10;;
25922;SDS011;13725;51.170;4.442;2022-09-01T14:06:16;1.75;;;1.20;;
25922;SDS011;13725;51.170;4.442;2022-09-01T14:08:43;2.22;;;1.20;;
25922;SDS011;13725;51.170;4.442;2022-09-01T14:11:14;3.70;;;1.33;;
25922;SDS011;13725;51.170;4.442;2022-09-01T14:13:44;2.53;;;1.08;;
25922;SDS011;13725;51.170;4.442;2022-09-01T14:16:11;3.30;;;1.40;;
25922;SDS011;13725;51.170;4.442;2022-09-01T14:18:38;4.22;;;1.33;;
25922;SDS011;13725;51.170;4.442;2022-09-01T14:21:03;8.30;;;2.47;;
25922;SDS011;13725;51.170;4.442;2022-09-01T14:23:29;3.83;;;1.55;;
25922;SDS011;13725;51.170;4.442;2022-09-01T14:25:55;3.65;;;1.35;;
25922;SDS011;13725;51.170;4.442;2022-09-01T14:28:25;3.83;;;1.45;;
25922;SDS011;13725;51.170;4.442;2022-09-01T14:30:51;2.83;;;1.27;;
25922;SDS011;13725;51.170;4.442;2022-09-01T14:33:17;2.78;;;1.27;;
25922;SDS011;13725;51.170;4.442;2022-09-01T14:35:48;2.90;;;1.50;;
25922;SDS011;13725;51.170;4.442;2022-09-01T14:38:14;4.75;;;2.03;;
25922;SDS011;13725;51.170;4.442;2022-09-01T14:40:42;2.30;;;1.20;;
25922;SDS011;13725;51.170;4.442;2022-09-01T14:43:11;4.05;;;1.27;;
25922;SDS011;13725;51.170;4.442;2022-09-01T14:45:38;4.05;;;1.13;;
25922;SDS011;13725;51.170;4.442;2022-09-01T14:48:05;4.45;;;1.67;;
25922;SDS011;13725;51.170;4.442;2022-09-01T14:50:33;2.30;;;1.35;;
25922;SDS011;13725;51.170;4.442;2022-09-01T14:53:04;1.75;;;1.35;;
25922;SDS011;13725;51.170;4.442;2022-09-01T14:55:30;2.53;;;1.10;;
25922;SDS011;13725;51.170;4.442;2022-09-01T14:57:57;2.63;;;1.13;;
25922;SDS011;13725;51.170;4.442;2022-09-01T15:00:24;3.05;;;1.30;;
25922;SDS011;13725;51.170;4.442;2022-09-01T15:02:51;7.93;;;1.20;;
25922;SDS011;13725;51.170;4.442;2022-09-01T15:05:19;2.80;;;1.15;;
25922;SDS011;13725;51.170;4.442;2022-09-01T15:07:45;4.90;;;1.25;;
25922;SDS011;13725;51.170;4.442;2022-09-01T15:10:11;1.48;;;1.08;;
25922;SDS011;13725;51.170;4.442;2022-09-01T15:12:39;2.92;;;1.15;;
25922;SDS011;13725;51.170;4.442;2022-09-01T15:15:06;4.18;;;1.10;;
25922;SDS011;13725;51.170;4.442;2022-09-01T15:17:32;5.97;;;1.20;;
25922;SDS011;13725;51.170;4.442;2022-09-01T15:19:59;2.30;;;1.10;;
25922;SDS011;13725;51.170;4.442;2022-09-01T15:22:46;1.83;;;1.10;;
25922;SDS011;13725;51.170;4.442;2022-09-01T15:25:14;5.65;;;1.17;;
25922;SDS011;13725;51.170;4.442;2022-09-01T15:27:40;1.98;;;1.23;;
25922;SDS011;13725;51.170;4.442;2022-09-01T15:30:06;4.03;;;1.23;;
25922;SDS011;13725;51.170;4.442;2022-09-01T15:32:39;2.72;;;1.80;;
25922;SDS011;13725;51.170;4.442;2022-09-01T15:35:09;7.55;;;1.73;;
25922;SDS011;13725;51.170;4.442;2022-09-01T15:37:36;1.67;;;1.00;;
25922;SDS011;13725;51.170;4.442;2022-09-01T15:40:03;4.80;;;1.17;;
25922;SDS011;13725;51.170;4.442;2022-09-01T15:42:31;2.67;;;1.40;;
25922;SDS011;13725;51.170;4.442;2022-09-01T15:44:58;5.97;;;2.05;;
25922;SDS011;13725;51.170;4.442;2022-09-01T15:47:24;3.00;;;1.30;;
25922;SDS011;13725;51.170;4.442;2022-09-01T15:49:50;5.63;;;1.25;;
25922;SDS011;13725;51.170;4.442;2022-09-01T15:52:16;5.35;;;1.35;;
25922;SDS011;13725;51.170;4.442;2022-09-01T15:54:42;4.00;;;1.20;;
25922;SDS011;13725;51.170;4.442;2022-09-01T15:57:08;3.72;;;1.10;;
25922;SDS011;13725;51.170;4.442;2022-09-01T15:59:34;4.18;;;1.35;;
25922;SDS011;13725;51.170;4.442;2022-09-01T16:02:04;4.75;;;1.30;;
25922;SDS011;13725;51.170;4.442;2022-09-01T16:04:31;2.38;;;1.30;;
25922;SDS011;13725;51.170;4.442;2022-09-01T16:06:58;5.35;;;1.73;;
25922;SDS011;13725;51.170;4.442;2022-09-01T16:09:24;5.32;;;1.80;;
25922;SDS011;13725;51.170;4.442;2022-09-01T16:11:51;7.53;;;1.58;;
25922;SDS011;13725;51.170;4.442;2022-09-01T16:14:17;2.17;;;1.05;;
25922;SDS011;13725;51.170;4.442;2022-09-01T16:19:33;4.47;;;1.60;;
25922;SDS011;13725;51.170;4.442;2022-09-01T16:22:27;5.40;;;1.23;;
25922;SDS011;13725;51.170;4.442;2022-09-01T16:25:01;5.40;;;1.10;;